createdAt,value
2022-09-30T00:01:32.681Z,20.40
2022-09-30T00:04:02.853Z,20.30
2022-09-30T00:06:31.942Z,20.30
2022-09-30T00:09:00.273Z,20.40
2022-09-30T00:11:29.636Z,20.40
2022-09-30T00:13:58.842Z,20.30
2022-09-30T00:16:29.545Z,20.30
2022-09-30T00:18:58.517Z,20.30
2022-09-30T00:21:28.586Z,20.30
2022-09-30T00:23:56.892Z,20.30
2022-09-30T00:26:25.241Z,20.30
2022-09-30T00:28:54.065Z,20.30
2022-09-30T00:31:22.770Z,20.30
2022-09-30T00:34:06.767Z,20.30
2022-09-30T00:36:37.379Z,20.30
2022-09-30T00:39:05.918Z,20.30
2022-09-30T00:41:34.320Z,20.30
2022-09-30T00:44:02.826Z,20.30
2022-09-30T00:46:33.435Z,20.30
2022-09-30T00:49:03.590Z,20.30
2022-09-30T00:51:33.000Z,20.30
2022-09-30T00:54:03.602Z,20.30
2022-09-30T00:56:33.942Z,20.20
2022-09-30T00:59:03.586Z,20.30
2022-09-30T01:01:32.050Z,20.30
2022-09-30T01:04:01.412Z,20.20
2022-09-30T01:06:29.736Z,20.20
2022-09-30T01:08:58.730Z,20.20
2022-09-30T01:11:29.799Z,20.20
2022-09-30T01:14:00.742Z,20.20
2022-09-30T01:16:37.475Z,20.20
2022-09-30T01:19:30.183Z,20.20
2022-09-30T01:22:20.763Z,20.20
2022-09-30T01:25:04.133Z,20.20
2022-09-30T01:28:05.399Z,20.20
2022-09-30T01:30:49.491Z,20.20
2022-09-30T01:33:29.194Z,20.20
2022-09-30T01:36:16.272Z,20.10
2022-09-30T01:38:59.534Z,20.20
2022-09-30T01:41:29.100Z,20.10
2022-09-30T01:44:03.026Z,20.10
2022-09-30T01:46:35.764Z,20.10
2022-09-30T01:49:09.349Z,20.10
2022-09-30T01:51:40.641Z,20.10
2022-09-30T01:54:11.178Z,20.10
2022-09-30T01:56:40.649Z,20.10
2022-09-30T01:59:10.635Z,20.10
2022-09-30T02:01:43.110Z,20.10
2022-09-30T02:04:13.931Z,20.10
2022-09-30T02:06:46.291Z,20.10
2022-09-30T02:09:15.902Z,20.30
2022-09-30T02:11:44.243Z,20.10
2022-09-30T02:14:15.828Z,20.10
2022-09-30T02:16:48.736Z,20.10
2022-09-30T02:19:20.374Z,20.00
2022-09-30T02:21:51.947Z,20.10
2022-09-30T02:24:21.176Z,20.00
2022-09-30T02:26:49.466Z,20.10
2022-09-30T02:29:19.216Z,20.00
2022-09-30T02:31:50.741Z,20.10
2022-09-30T02:34:20.682Z,20.10
2022-09-30T02:36:51.862Z,20.10
2022-09-30T02:39:23.498Z,20.10
2022-09-30T02:41:53.491Z,20.00
2022-09-30T02:44:24.618Z,20.00
2022-09-30T02:46:57.584Z,20.10
2022-09-30T02:49:29.403Z,20.00
2022-09-30T02:52:05.750Z,20.10
2022-09-30T02:54:35.792Z,20.10
2022-09-30T02:57:07.194Z,20.00
2022-09-30T02:59:35.490Z,20.00
2022-09-30T03:02:05.201Z,20.00
2022-09-30T03:04:34.410Z,20.00
2022-09-30T03:07:03.165Z,20.00
2022-09-30T03:09:31.495Z,20.00
2022-09-30T03:12:09.242Z,20.00
2022-09-30T03:14:43.889Z,20.00
2022-09-30T03:17:31.489Z,20.00
2022-09-30T03:20:04.185Z,20.00
2022-09-30T03:22:44.055Z,20.00
2022-09-30T03:25:19.379Z,20.00
2022-09-30T03:27:52.622Z,20.00
2022-09-30T03:30:24.521Z,20.00
2022-09-30T03:33:04.277Z,20.00
2022-09-30T03:35:34.094Z,19.90
2022-09-30T03:38:05.153Z,20.00
2022-09-30T03:40:38.369Z,20.00
2022-09-30T03:43:08.307Z,20.00
2022-09-30T03:45:38.018Z,20.00
2022-09-30T03:48:08.825Z,19.90
2022-09-30T03:50:38.229Z,19.90
2022-09-30T03:53:10.771Z,19.90
2022-09-30T03:55:47.719Z,19.90
2022-09-30T03:58:16.384Z,20.00
2022-09-30T04:00:48.304Z,19.90
2022-09-30T04:03:18.277Z,19.90
2022-09-30T04:05:46.595Z,19.90
2022-09-30T04:08:14.874Z,19.90
2022-09-30T04:10:43.750Z,19.90
2022-09-30T04:13:12.513Z,19.90
2022-09-30T04:15:41.611Z,19.90
2022-09-30T04:18:09.917Z,19.90
2022-09-30T04:20:39.613Z,19.90
2022-09-30T04:23:07.870Z,19.90
2022-09-30T04:25:36.139Z,19.90
2022-09-30T04:28:04.402Z,19.90
2022-09-30T04:30:33.683Z,19.90
2022-09-30T04:33:02.144Z,19.80
2022-09-30T04:35:30.404Z,19.90
2022-09-30T04:38:00.255Z,19.90
2022-09-30T04:40:28.589Z,19.90
2022-09-30T04:42:58.200Z,19.90
2022-09-30T04:45:26.577Z,19.90
2022-09-30T04:47:54.882Z,19.90
2022-09-30T04:50:23.202Z,19.80
2022-09-30T04:52:51.454Z,19.80
2022-09-30T04:55:21.070Z,19.80
2022-09-30T04:57:49.335Z,19.80
2022-09-30T05:00:17.858Z,19.80
2022-09-30T05:02:46.147Z,19.80
2022-09-30T05:05:14.567Z,19.80
2022-09-30T05:07:42.803Z,19.80
2022-09-30T05:10:11.641Z,19.80
2022-09-30T05:12:41.406Z,19.80
2022-09-30T05:15:10.479Z,19.80
2022-09-30T05:17:38.815Z,19.80
2022-09-30T05:20:10.750Z,19.80
2022-09-30T05:22:39.368Z,19.80
2022-09-30T05:25:08.347Z,19.80
2022-09-30T05:27:36.635Z,19.70
2022-09-30T05:30:07.494Z,19.70
2022-09-30T05:32:35.768Z,19.70
2022-09-30T05:35:04.702Z,19.70
2022-09-30T05:37:33.900Z,19.70
2022-09-30T05:40:02.631Z,19.80
2022-09-30T05:42:32.418Z,19.70
2022-09-30T05:45:00.802Z,19.70
2022-09-30T05:47:30.448Z,19.70
2022-09-30T05:49:58.725Z,19.70
2022-09-30T05:52:28.245Z,19.70
2022-09-30T05:54:59.024Z,19.70
2022-09-30T05:57:27.770Z,19.70
2022-09-30T05:59:57.738Z,19.70
2022-09-30T06:02:26.119Z,19.70
2022-09-30T06:04:55.892Z,19.80
2022-09-30T06:07:24.163Z,19.70
2022-09-30T06:09:52.503Z,19.70
2022-09-30T06:12:20.767Z,19.80
2022-09-30T06:14:49.042Z,19.80
2022-09-30T06:17:19.225Z,19.80
2022-09-30T06:19:47.530Z,19.80
2022-09-30T06:22:18.071Z,19.80
2022-09-30T06:24:46.437Z,19.80
2022-09-30T06:27:14.705Z,19.80
2022-09-30T06:29:42.980Z,19.80
2022-09-30T06:32:11.248Z,19.70
2022-09-30T06:34:39.582Z,19.60
2022-09-30T06:37:07.878Z,19.60
2022-09-30T06:39:37.594Z,19.60
2022-09-30T06:42:05.897Z,19.40
2022-09-30T06:44:38.802Z,19.50
2022-09-30T06:47:24.005Z,19.40
2022-09-30T06:49:58.417Z,19.40
2022-09-30T06:52:27.271Z,19.50
2022-09-30T06:54:57.518Z,19.60
2022-09-30T06:57:27.646Z,19.80
2022-09-30T06:59:56.188Z,19.90
2022-09-30T07:02:24.563Z,19.90
2022-09-30T07:04:52.886Z,20.00
2022-09-30T07:07:21.886Z,20.00
2022-09-30T07:09:59.556Z,20.00
2022-09-30T07:12:28.255Z,20.10
2022-09-30T07:14:57.089Z,20.00
2022-09-30T07:17:28.050Z,20.00
2022-09-30T07:19:56.444Z,20.10
2022-09-30T07:22:32.022Z,20.10
2022-09-30T07:25:03.301Z,20.10
2022-09-30T07:27:33.224Z,20.10
2022-09-30T07:30:10.241Z,20.10
2022-09-30T07:32:39.809Z,20.10
2022-09-30T07:35:08.583Z,20.10
2022-09-30T07:37:36.878Z,20.10
2022-09-30T07:40:08.529Z,20.10
2022-09-30T07:42:38.259Z,20.20
2022-09-30T07:45:07.798Z,20.20
2022-09-30T07:47:36.102Z,20.20
2022-09-30T07:50:05.189Z,20.20
2022-09-30T07:52:33.446Z,20.20
2022-09-30T07:55:01.718Z,20.20
2022-09-30T07:57:31.313Z,20.20
2022-09-30T08:00:11.733Z,20.30
2022-09-30T08:02:47.917Z,20.30
2022-09-30T08:05:16.243Z,20.30
2022-09-30T08:07:44.670Z,20.30
2022-09-30T08:10:13.868Z,20.40
2022-09-30T08:12:43.495Z,20.40
2022-09-30T08:15:12.073Z,20.40
2022-09-30T08:17:40.307Z,20.40
2022-09-30T08:20:13.060Z,20.40
2022-09-30T08:22:42.577Z,20.50
2022-09-30T08:25:10.984Z,20.60
2022-09-30T08:27:39.353Z,20.60
2022-09-30T08:30:10.803Z,20.70
2022-09-30T08:32:39.050Z,20.60
2022-09-30T08:35:08.053Z,20.60
2022-09-30T08:37:36.673Z,20.70
2022-09-30T08:40:05.792Z,21.00
2022-09-30T08:42:45.337Z,21.10
2022-09-30T08:45:26.559Z,20.90
2022-09-30T08:48:01.238Z,20.70
2022-09-30T08:50:31.613Z,20.60
2022-09-30T08:53:00.810Z,20.50
2022-09-30T08:55:32.358Z,20.50
2022-09-30T08:58:01.886Z,20.40
2022-09-30T09:00:31.516Z,20.40
2022-09-30T09:03:00.364Z,20.40
2022-09-30T09:05:38.171Z,20.40
2022-09-30T09:08:08.823Z,20.40
2022-09-30T09:10:44.576Z,20.40
2022-09-30T09:13:19.702Z,20.30
2022-09-30T09:15:58.749Z,20.30
2022-09-30T09:18:43.157Z,20.30
2022-09-30T09:21:23.112Z,20.30
2022-09-30T09:23:52.235Z,20.30
2022-09-30T09:26:20.503Z,20.30
2022-09-30T09:28:57.950Z,20.30
2022-09-30T09:31:27.637Z,20.20
2022-09-30T09:33:57.416Z,20.20
2022-09-30T09:36:35.534Z,20.20
2022-09-30T09:39:18.090Z,20.10
2022-09-30T09:41:51.416Z,20.20
2022-09-30T09:44:23.754Z,20.20
2022-09-30T09:46:56.334Z,20.20
2022-09-30T09:49:32.102Z,20.30
2022-09-30T09:52:23.802Z,20.20
2022-09-30T09:54:56.702Z,20.30
2022-09-30T09:57:27.971Z,20.30
2022-09-30T09:59:58.258Z,20.30
2022-09-30T10:02:29.304Z,20.30
2022-09-30T10:05:04.543Z,20.40
2022-09-30T10:07:33.695Z,20.40
2022-09-30T10:10:23.058Z,20.40
2022-09-30T10:12:52.308Z,20.40
2022-09-30T10:15:22.236Z,20.40
2022-09-30T10:17:55.658Z,20.40
2022-09-30T10:20:31.445Z,20.50
2022-09-30T10:23:05.806Z,20.50
2022-09-30T10:25:34.083Z,20.50
2022-09-30T10:28:03.242Z,20.50
2022-09-30T10:30:37.227Z,20.60
2022-09-30T10:33:12.377Z,20.60
2022-09-30T10:35:56.510Z,20.60
2022-09-30T10:38:25.627Z,20.70
2022-09-30T10:40:53.913Z,20.70
2022-09-30T10:43:24.404Z,20.80
2022-09-30T10:46:20.800Z,20.80
2022-09-30T10:48:42.954Z,20.80
2022-09-30T10:51:22.383Z,20.80
2022-09-30T10:53:50.629Z,20.90
2022-09-30T10:56:38.469Z,20.90
2022-09-30T10:59:09.632Z,21.00
2022-09-30T11:01:39.719Z,21.00
2022-09-30T11:04:13.374Z,21.10
2022-09-30T11:06:41.979Z,21.10
2022-09-30T11:09:12.250Z,21.20
2022-09-30T11:11:42.807Z,21.30
2022-09-30T11:14:30.804Z,21.30
2022-09-30T11:17:09.812Z,21.30
2022-09-30T11:19:42.352Z,21.30
2022-09-30T11:22:21.304Z,21.30
2022-09-30T11:24:54.417Z,21.30
2022-09-30T11:27:25.441Z,21.30
2022-09-30T11:30:01.764Z,21.40
2022-09-30T11:32:51.309Z,21.40
2022-09-30T11:35:32.403Z,21.50
2022-09-30T11:38:10.768Z,21.60
2022-09-30T11:40:40.039Z,21.70
2022-09-30T11:43:23.177Z,21.80
2022-09-30T11:46:02.351Z,21.90
2022-09-30T11:48:37.052Z,21.90
2022-09-30T11:51:11.322Z,21.90
2022-09-30T11:53:44.785Z,21.80
2022-09-30T11:56:28.292Z,21.80
2022-09-30T11:58:58.972Z,21.90
2022-09-30T12:01:30.214Z,22.00
2022-09-30T12:04:01.580Z,22.10
2022-09-30T12:06:36.258Z,22.10
2022-09-30T12:09:09.075Z,22.10
2022-09-30T12:11:41.091Z,22.20
2022-09-30T12:14:14.254Z,22.30
2022-09-30T12:16:42.512Z,22.30
2022-09-30T12:19:15.111Z,22.40
2022-09-30T12:21:48.104Z,22.50
2022-09-30T12:24:18.391Z,22.60
2022-09-30T12:26:47.268Z,22.60
2022-09-30T12:29:35.510Z,22.60
2022-09-30T12:32:16.190Z,22.70
2022-09-30T12:34:53.229Z,22.80
2022-09-30T12:37:26.982Z,22.70
2022-09-30T12:40:11.303Z,22.70
2022-09-30T12:43:18.298Z,22.80
2022-09-30T12:46:08.208Z,22.80
2022-09-30T12:48:37.726Z,22.80
2022-09-30T12:51:06.195Z,22.90
2022-09-30T12:53:37.306Z,22.90
2022-09-30T12:56:08.068Z,22.80
2022-09-30T12:58:38.358Z,22.80
2022-09-30T13:01:08.686Z,22.60
2022-09-30T13:04:16.470Z,22.50
2022-09-30T13:07:08.153Z,22.50
2022-09-30T13:09:38.262Z,22.50
2022-09-30T13:12:24.886Z,22.60
2022-09-30T13:15:00.699Z,22.70
2022-09-30T13:17:28.958Z,22.80
2022-09-30T13:19:58.161Z,22.80
2022-09-30T13:22:57.618Z,22.90
2022-09-30T13:25:27.216Z,23.00
2022-09-30T13:28:25.694Z,23.10
2022-09-30T13:31:12.855Z,23.20
2022-09-30T13:33:45.799Z,23.30
2022-09-30T13:36:39.541Z,23.30
2022-09-30T13:39:19.294Z,23.40
2022-09-30T13:42:03.168Z,23.40
2022-09-30T13:44:38.725Z,23.40
2022-09-30T13:47:16.066Z,23.40
2022-09-30T13:49:46.693Z,23.50
2022-09-30T13:52:19.300Z,23.50
2022-09-30T13:54:47.746Z,23.60
2022-09-30T13:57:20.159Z,23.30
2022-09-30T13:59:52.901Z,23.10
2022-09-30T14:02:40.803Z,23.10
2022-09-30T14:05:36.111Z,22.90
2022-09-30T14:08:16.325Z,22.80
2022-09-30T14:10:57.021Z,22.90
2022-09-30T14:13:33.871Z,22.90
2022-09-30T14:16:20.112Z,23.10
2022-09-30T14:19:05.186Z,23.10
2022-09-30T14:21:36.044Z,23.20
2022-09-30T14:24:09.070Z,23.30
2022-09-30T14:26:45.647Z,23.30
2022-09-30T14:29:17.389Z,23.20
2022-09-30T14:31:45.829Z,23.20
2022-09-30T14:34:14.562Z,23.10
2022-09-30T14:36:42.820Z,23.00
2022-09-30T14:39:14.595Z,23.20
2022-09-30T14:41:51.465Z,23.20
2022-09-30T14:44:22.221Z,23.40
2022-09-30T14:46:50.662Z,23.50
2022-09-30T14:49:20.140Z,23.50
2022-09-30T14:51:49.018Z,23.60
2022-09-30T14:54:18.637Z,23.60
2022-09-30T14:56:46.940Z,23.60
2022-09-30T14:59:19.515Z,23.50
2022-09-30T15:01:49.814Z,23.40
2022-09-30T15:04:19.493Z,23.40
2022-09-30T15:06:48.559Z,23.20
2022-09-30T15:09:22.593Z,23.10
2022-09-30T15:11:50.854Z,23.00
2022-09-30T15:14:20.405Z,22.80
2022-09-30T15:16:51.038Z,22.60
2022-09-30T15:19:21.083Z,22.60
2022-09-30T15:21:49.921Z,22.50
2022-09-30T15:24:18.405Z,22.40
2022-09-30T15:26:47.033Z,22.30
2022-09-30T15:29:15.342Z,22.20
2022-09-30T15:31:45.501Z,22.20
2022-09-30T15:34:20.375Z,22.20
2022-09-30T15:36:57.563Z,22.20
2022-09-30T15:39:47.537Z,22.10
2022-09-30T15:42:15.971Z,22.10
2022-09-30T15:44:44.818Z,22.10
2022-09-30T15:47:13.875Z,22.00
2022-09-30T15:49:50.060Z,22.00
2022-09-30T15:52:29.268Z,22.10
2022-09-30T15:54:57.960Z,22.10
2022-09-30T15:57:48.981Z,22.00
2022-09-30T16:00:35.281Z,22.10
2022-09-30T16:03:19.991Z,22.10
2022-09-30T16:05:53.907Z,22.10
2022-09-30T16:08:23.955Z,22.10
2022-09-30T16:10:53.239Z,22.10
2022-09-30T16:13:22.537Z,22.00
2022-09-30T16:15:51.007Z,22.10
2022-09-30T16:18:19.914Z,22.10
2022-09-30T16:20:59.990Z,22.00
2022-09-30T16:23:29.728Z,22.00
2022-09-30T16:26:13.449Z,22.00
2022-09-30T16:28:43.285Z,22.00
2022-09-30T16:31:11.584Z,21.90
2022-09-30T16:33:42.013Z,21.90
2022-09-30T16:36:11.676Z,21.90
2022-09-30T16:38:40.003Z,21.80
2022-09-30T16:41:11.233Z,21.80
2022-09-30T16:43:39.841Z,21.80
2022-09-30T16:46:09.846Z,21.80
2022-09-30T16:48:39.466Z,21.80
2022-09-30T16:51:14.727Z,21.70
2022-09-30T16:53:44.363Z,21.70
2022-09-30T16:56:15.294Z,21.70
2022-09-30T16:58:44.006Z,21.70
2022-09-30T17:01:17.602Z,21.70
2022-09-30T17:03:46.355Z,21.70
2022-09-30T17:06:14.677Z,21.70
2022-09-30T17:08:45.040Z,21.60
2022-09-30T17:11:13.282Z,21.60
2022-09-30T17:13:42.276Z,21.60
2022-09-30T17:16:10.578Z,21.60
2022-09-30T17:18:38.872Z,21.60
2022-09-30T17:21:07.245Z,21.60
2022-09-30T17:23:35.515Z,21.60
2022-09-30T17:26:06.758Z,21.60
2022-09-30T17:28:35.259Z,21.60
2022-09-30T17:31:03.567Z,21.60
2022-09-30T17:33:31.926Z,21.70
2022-09-30T17:36:00.777Z,21.70
2022-09-30T17:38:29.288Z,21.70
2022-09-30T17:41:15.279Z,21.70
2022-09-30T17:43:45.464Z,21.70
2022-09-30T17:46:16.224Z,21.60
2022-09-30T17:48:45.647Z,21.60
2022-09-30T17:51:14.725Z,21.60
2022-09-30T17:53:42.971Z,21.70
2022-09-30T17:56:16.949Z,21.60
2022-09-30T17:58:47.776Z,21.60
2022-09-30T18:01:16.284Z,21.60
2022-09-30T18:03:45.041Z,21.60
2022-09-30T18:06:14.410Z,21.60
2022-09-30T18:08:42.699Z,21.60
2022-09-30T18:11:11.608Z,21.60
2022-09-30T18:13:39.917Z,21.60
2022-09-30T18:16:09.721Z,21.60
2022-09-30T18:18:40.297Z,21.50
2022-09-30T18:21:08.570Z,21.50
2022-09-30T18:23:39.298Z,21.50
2022-09-30T18:26:07.578Z,21.50
2022-09-30T18:28:37.538Z,21.50
2022-09-30T18:31:08.710Z,21.50
2022-09-30T18:33:38.470Z,21.50
2022-09-30T18:36:06.916Z,21.50
2022-09-30T18:38:35.205Z,21.50
2022-09-30T18:41:06.619Z,21.50
2022-09-30T18:43:35.603Z,21.50
2022-09-30T18:46:04.632Z,21.50
2022-09-30T18:48:34.684Z,21.50
2022-09-30T18:51:04.730Z,21.40
2022-09-30T18:53:35.570Z,21.50
2022-09-30T18:56:06.818Z,21.50
2022-09-30T18:58:36.581Z,21.50
2022-09-30T19:01:05.633Z,21.50
2022-09-30T19:03:34.047Z,21.50
2022-09-30T19:06:09.250Z,21.50
2022-09-30T19:08:37.528Z,21.40
2022-09-30T19:11:13.850Z,21.50
2022-09-30T19:13:42.956Z,21.50
2022-09-30T19:16:12.010Z,21.40
2022-09-30T19:18:40.469Z,21.40
2022-09-30T19:21:11.651Z,21.40
2022-09-30T19:23:40.090Z,21.40
2022-09-30T19:26:10.019Z,21.40
2022-09-30T19:28:38.411Z,21.40
2022-09-30T19:31:12.241Z,21.40
2022-09-30T19:33:49.923Z,21.40
2022-09-30T19:36:24.645Z,21.40
2022-09-30T19:39:04.921Z,21.40
2022-09-30T19:41:36.764Z,21.40
2022-09-30T19:44:05.035Z,21.40
2022-09-30T19:46:33.267Z,21.40
2022-09-30T19:49:01.980Z,21.40
2022-09-30T19:51:33.170Z,21.40
2022-09-30T19:54:06.817Z,21.40
2022-09-30T19:56:35.813Z,21.40
2022-09-30T19:59:04.293Z,21.40
2022-09-30T20:01:34.463Z,21.40
2022-09-30T20:04:05.159Z,21.40
2022-09-30T20:06:35.549Z,21.30
2022-09-30T20:09:04.330Z,21.30
2022-09-30T20:11:34.293Z,21.30
2022-09-30T20:14:21.145Z,21.30
2022-09-30T20:16:49.535Z,21.20
2022-09-30T20:19:17.917Z,21.30
2022-09-30T20:21:47.760Z,21.30
2022-09-30T20:24:16.996Z,21.30
2022-09-30T20:26:45.708Z,21.20
2022-09-30T20:29:14.048Z,21.30
2022-09-30T20:31:43.121Z,21.30
2022-09-30T20:34:12.733Z,21.20
2022-09-30T20:36:41.267Z,21.30
2022-09-30T20:39:13.482Z,21.20
2022-09-30T20:41:43.455Z,21.20
2022-09-30T20:44:13.525Z,21.20
2022-09-30T20:46:43.170Z,21.30
2022-09-30T20:49:11.458Z,21.20
2022-09-30T20:51:39.765Z,21.20
2022-09-30T20:54:10.456Z,21.20
2022-09-30T20:57:05.662Z,21.10
2022-09-30T20:59:30.299Z,21.10
2022-09-30T21:01:58.665Z,21.10
2022-09-30T21:04:26.940Z,21.10
2022-09-30T21:06:55.290Z,21.10
2022-09-30T21:09:23.562Z,21.00
2022-09-30T21:11:53.156Z,21.00
2022-09-30T21:14:21.409Z,21.00
2022-09-30T21:16:49.768Z,21.00
2022-09-30T21:19:18.683Z,21.00
2022-09-30T21:21:46.927Z,21.00
2022-09-30T21:24:16.222Z,21.00
2022-09-30T21:26:44.515Z,21.00
2022-09-30T21:29:15.150Z,21.10
2022-09-30T21:31:43.459Z,21.00
2022-09-30T21:34:13.512Z,21.00
2022-09-30T21:36:41.774Z,21.00
2022-09-30T21:39:10.030Z,21.00
2022-09-30T21:41:40.529Z,21.00
2022-09-30T21:44:08.892Z,20.90
2022-09-30T21:46:38.511Z,21.00
2022-09-30T21:49:07.502Z,20.90
2022-09-30T21:51:36.358Z,20.90
2022-09-30T21:54:04.667Z,20.90
2022-09-30T21:56:33.029Z,20.90
2022-09-30T21:59:01.268Z,20.90
2022-09-30T22:01:30.589Z,20.90
2022-09-30T22:04:00.426Z,20.90
2022-09-30T22:06:29.429Z,20.80
2022-09-30T22:08:58.797Z,20.80
2022-09-30T22:11:27.054Z,20.80
2022-09-30T22:13:56.121Z,20.80
2022-09-30T22:16:26.888Z,20.90
2022-09-30T22:18:55.760Z,20.80
2022-09-30T22:21:25.691Z,20.80
2022-09-30T22:23:53.985Z,20.80
2022-09-30T22:26:23.456Z,20.80
2022-09-30T22:28:54.806Z,20.80
2022-09-30T22:31:23.901Z,20.80
2022-09-30T22:34:10.810Z,20.80
2022-09-30T22:36:57.802Z,20.80
2022-09-30T22:39:26.425Z,20.80
2022-09-30T22:41:55.406Z,20.80
2022-09-30T22:44:24.647Z,20.80
2022-09-30T22:46:55.411Z,20.80
2022-09-30T22:49:24.329Z,20.70
2022-09-30T22:51:54.106Z,20.70
2022-09-30T22:54:22.470Z,20.70
2022-09-30T22:56:51.128Z,20.70
2022-09-30T22:59:19.467Z,20.70
2022-09-30T23:01:50.224Z,20.70
2022-09-30T23:04:18.778Z,20.70
2022-09-30T23:06:48.250Z,20.70
2022-09-30T23:09:17.879Z,20.70
2022-09-30T23:11:46.257Z,20.70
2022-09-30T23:14:14.510Z,20.70
2022-09-30T23:16:42.870Z,20.70
2022-09-30T23:19:11.194Z,20.60
2022-09-30T23:21:39.493Z,20.60
2022-09-30T23:24:07.864Z,20.60
2022-09-30T23:26:37.469Z,20.60
2022-09-30T23:29:06.465Z,20.60
2022-09-30T23:31:36.677Z,20.60
2022-09-30T23:34:05.219Z,20.60
2022-09-30T23:36:35.496Z,20.60
2022-09-30T23:39:04.863Z,20.60
2022-09-30T23:41:34.147Z,20.60
2022-09-30T23:44:04.321Z,20.60
2022-09-30T23:46:32.618Z,20.60
2022-09-30T23:49:00.845Z,20.60
2022-09-30T23:51:29.106Z,20.60
2022-09-30T23:53:57.341Z,20.60
2022-09-30T23:56:25.615Z,20.50
2022-09-30T23:58:56.011Z,20.60
